Shawnee, Pennsylvania
Current Conditions -  °F | °C
As of 8:06 AM on Thursday 30 Oct 2014 (Local Time) from KMPO Reporting Station
Broken Clouds Broken Clouds  
Wind Chill: 31°   Ceiling: 6000
Heat Index: 36°   Visibility: 8mi
Dew Point: 34°   Wind: 6mph
Humidity: 93%   Direction: 290°WNW
Pressure: 29.98"   Gusts: NA
Location:  41.0124°N, 75.1113°W
Report Text: KMPO 301206Z AUTO 29005KT 8SM BKN060 02/01 A2998 RMK AO2 T00220011 $
Loading
Personal Weather Stations






























Interactive Weather Map
Tropical Storm Tracking
New forecast layout! Learn more

10-Day Weather Forecast

Advertisements
Track Severe Weather on mobile